Time;durP1;ratioP1;P1;durP2;ratioP2;P2;SDS_P1;SDS_P2;PMS_P1;PMS_P2;Temp;Humidity;BMP_temperature;BMP_pressure;BME280_temperature;BME280_humidity;BME280_pressure;Samples;Min_cycle;Max_cycle;Signal;HPM_P1;HPM_P2
2023/01/16 00:02:19;;;;;;;3.73;1.90;;;5.90;92.40;;;;;;4985489;28;20180;-91
2023/01/16 00:04:45;;;;;;;3.40;1.40;;;5.90;92.30;;;;;;4981455;28;20183;-89
2023/01/16 00:07:15;;;;;;;4.50;1.10;;;5.90;92.00;;;;;;4981983;28;20163;-91
2023/01/16 00:09:40;;;;;;;5.60;1.27;;;5.90;91.60;;;;;;4982981;28;20176;-89
2023/01/16 00:12:07;;;;;;;2.67;1.37;;;5.90;91.60;;;;;;4984501;28;20175;-88
2023/01/16 00:14:34;;;;;;;2.77;0.90;;;5.90;91.10;;;;;;4995391;28;20180;-83
2023/01/16 00:16:59;;;;;;;3.57;1.27;;;5.90;90.60;;;;;;4999173;28;20184;-86
2023/01/16 00:19:25;;;;;;;3.17;1.37;;;5.90;89.20;;;;;;4999688;28;20187;-88
2023/01/16 00:21:54;;;;;;;6.33;1.40;;;6.00;89.50;;;;;;4991716;28;20187;-90
2023/01/16 00:27:46;;;;;;;3.20;1.70;;;5.90;87.20;;;;;;4981373;28;20162;-89
2023/01/16 00:30:12;;;;;;;4.03;1.30;;;5.90;84.20;;;;;;4987666;28;20183;-88
2023/01/16 00:32:40;;;;;;;4.27;1.20;;;5.90;83.60;;;;;;4996851;28;20184;-89
2023/01/16 00:35:06;;;;;;;6.27;1.70;;;5.90;85.00;;;;;;4989976;28;20289;-89
2023/01/16 00:37:32;;;;;;;4.43;1.83;;;5.90;85.70;;;;;;4997455;28;20172;-84
2023/01/16 00:39:58;;;;;;;4.60;1.50;;;5.90;84.10;;;;;;4999139;28;20281;-86
2023/01/16 00:42:26;;;;;;;5.40;2.00;;;5.80;84.30;;;;;;4999086;28;20200;-87
2023/01/16 00:44:52;;;;;;;4.33;1.93;;;5.90;86.00;;;;;;4988820;28;20184;-86
2023/01/16 00:47:20;;;;;;;5.30;1.50;;;5.90;85.20;;;;;;4983281;28;20189;-87
2023/01/16 00:50:02;;;;;;;4.53;1.17;;;5.90;84.20;;;;;;4983342;28;20176;-85
2023/01/16 00:52:27;;;;;;;3.03;1.50;;;5.80;82.80;;;;;;4985576;28;20223;-85
2023/01/16 00:54:53;;;;;;;9.30;1.50;;;5.80;83.90;;;;;;4987166;28;20187;-89
2023/01/16 00:57:19;;;;;;;5.93;1.60;;;5.80;85.60;;;;;;4986120;28;20164;-88
2023/01/16 00:59:44;;;;;;;4.03;1.13;;;5.90;85.70;;;;;;4985122;28;20180;-88
2023/01/16 01:02:13;;;;;;;7.10;1.43;;;5.90;86.00;;;;;;4984867;28;20312;-87
2023/01/16 01:04:41;;;;;;;3.90;1.10;;;5.80;88.40;;;;;;4978954;28;20200;-86
2023/01/16 01:07:07;;;;;;;2.47;1.20;;;5.90;88.30;;;;;;4978459;28;20183;-90
2023/01/16 01:09:32;;;;;;;4.93;1.60;;;5.80;86.40;;;;;;4984331;28;20186;-84
2023/01/16 01:11:59;;;;;;;5.93;1.70;;;5.90;87.90;;;;;;4997029;28;20176;-86
2023/01/16 01:14:25;;;;;;;4.37;1.47;;;5.90;86.70;;;;;;4992212;28;20180;-83
2023/01/16 01:17:19;;;;;;;4.93;1.70;;;5.90;89.00;;;;;;4992048;28;20193;-86
2023/01/16 01:19:46;;;;;;;4.30;1.20;;;5.80;88.60;;;;;;4991717;28;20148;-84
2023/01/16 01:22:11;;;;;;;5.93;1.57;;;5.90;90.20;;;;;;4990587;28;20226;-85
2023/01/16 01:24:37;;;;;;;3.37;1.30;;;5.90;90.10;;;;;;4978414;28;20267;-88
2023/01/16 01:27:03;;;;;;;4.33;1.70;;;5.90;90.20;;;;;;4984900;28;20198;-83
2023/01/16 01:29:29;;;;;;;3.83;1.40;;;5.90;89.70;;;;;;4998809;28;20164;-86
2023/01/16 01:31:55;;;;;;;5.60;2.17;;;5.90;90.50;;;;;;4992600;28;20180;-89
2023/01/16 01:34:31;;;;;;;5.47;1.73;;;5.90;90.60;;;;;;4982646;28;20211;-89
2023/01/16 01:37:01;;;;;;;9.40;2.33;;;5.90;91.60;;;;;;4975888;28;20173;-89
2023/01/16 01:39:27;;;;;;;7.03;1.80;;;6.00;92.00;;;;;;4976482;28;20164;-88
2023/01/16 01:42:41;;;;;;;9.00;2.00;;;6.00;92.00;;;;;;4975993;28;20222;-86
2023/01/16 01:45:10;;;;;;;7.03;2.70;;;6.00;91.30;;;;;;4975666;28;20262;-87
2023/01/16 01:47:39;;;;;;;2.97;1.90;;;6.10;91.30;;;;;;4981900;28;20534;-88
2023/01/16 01:50:35;;;;;;;8.57;1.97;;;6.10;92.00;;;;;;4981336;28;20262;-89
2023/01/16 01:53:05;;;;;;;7.30;2.10;;;6.10;91.90;;;;;;4969453;28;20187;-89
2023/01/16 01:55:32;;;;;;;8.83;2.10;;;6.10;91.80;;;;;;4980840;28;20176;-90
2023/01/16 01:58:01;;;;;;;5.20;1.60;;;6.20;91.60;;;;;;4996396;28;20182;-89
2023/01/16 02:00:29;;;;;;;12.07;2.33;;;6.20;91.30;;;;;;4996185;28;20184;-90
2023/01/16 02:03:16;;;;;;;7.20;2.37;;;6.30;90.70;;;;;;4985035;28;20246;-89
2023/01/16 02:05:49;;;;;;;8.87;2.23;;;6.40;88.00;;;;;;4984905;28;20176;-89
2023/01/16 02:08:19;;;;;;;9.33;2.83;;;6.50;86.30;;;;;;4994358;28;20194;-88
2023/01/16 02:11:01;;;;;;;8.57;2.30;;;6.50;84.40;;;;;;5001651;28;20168;-85
2023/01/16 02:13:28;;;;;;;12.17;2.20;;;6.40;82.70;;;;;;5001674;28;20156;-88
2023/01/16 02:21:53;;;;;;;7.20;1.97;;;6.50;77.70;;;;;;5001369;28;20171;-88
2023/01/16 02:24:56;;;;;;;9.60;2.37;;;6.60;75.80;;;;;;5000766;28;20196;-86
2023/01/16 02:27:53;;;;;;;7.73;2.33;;;6.60;75.50;;;;;;4999913;28;20179;-89
2023/01/16 02:30:57;;;;;;;8.60;2.30;;;6.60;72.90;;;;;;4991587;28;20191;-88
2023/01/16 02:34:11;;;;;;;6.97;1.70;;;6.60;73.00;;;;;;4989667;28;20175;-89
2023/01/16 02:36:43;;;;;;;7.80;2.57;;;6.60;71.40;;;;;;4997962;28;20156;-88
2023/01/16 02:39:44;;;;;;;7.67;1.80;;;6.60;70.00;;;;;;4997974;28;20183;-89
2023/01/16 02:42:37;;;;;;;11.67;2.27;;;6.60;69.60;;;;;;4988713;28;20199;-90
2023/01/16 02:45:08;;;;;;;6.13;1.70;;;6.60;68.10;;;;;;4992659;28;20175;-89
2023/01/16 02:47:54;;;;;;;7.03;2.00;;;6.70;68.70;;;;;;4991431;28;20179;-88
2023/01/16 02:50:20;;;;;;;7.93;2.07;;;6.70;67.20;;;;;;4984925;28;20183;-89
2023/01/16 02:53:12;;;;;;;7.37;1.53;;;6.70;65.20;;;;;;4977735;28;20179;-88
2023/01/16 02:56:02;;;;;;;6.37;1.97;;;6.70;63.50;;;;;;4978447;28;20279;-88
2023/01/16 02:58:32;;;;;;;7.07;1.97;;;6.80;63.20;;;;;;4982927;28;20180;-90
2023/01/16 03:00:59;;;;;;;5.17;1.37;;;6.80;59.10;;;;;;4986364;28;20687;-89
2023/01/16 03:03:46;;;;;;;6.83;2.23;;;6.90;58.00;;;;;;4983722;28;20208;-88
2023/01/16 03:06:34;;;;;;;7.27;1.50;;;6.90;56.80;;;;;;4992142;28;20164;-86
2023/01/16 03:09:24;;;;;;;4.93;1.43;;;7.00;54.70;;;;;;5000823;28;20176;-86
2023/01/16 03:12:00;;;;;;;6.27;1.90;;;7.00;55.20;;;;;;5000818;28;20183;-87
2023/01/16 03:14:34;;;;;;;7.03;1.80;;;6.90;54.80;;;;;;4995228;28;20184;-88
2023/01/16 03:17:25;;;;;;;7.27;1.80;;;6.90;58.50;;;;;;4978283;28;20230;-88
2023/01/16 03:19:59;;;;;;;5.40;1.60;;;7.00;60.50;;;;;;4978034;28;20200;-87
2023/01/16 03:23:00;;;;;;;5.50;1.17;;;7.00;57.50;;;;;;4978088;28;20199;-89
2023/01/16 03:25:42;;;;;;;6.70;1.43;;;7.00;59.80;;;;;;4972821;28;20214;-88
2023/01/16 03:28:45;;;;;;;3.97;1.37;;;6.80;61.40;;;;;;4978136;28;20183;-88
2023/01/16 03:31:39;;;;;;;9.90;1.77;;;7.00;62.00;;;;;;4974112;28;20251;-89
2023/01/16 03:34:24;;;;;;;5.27;1.80;;;7.10;60.70;;;;;;4979440;28;20179;-91
2023/01/16 03:36:51;;;;;;;6.97;1.63;;;7.10;59.70;;;;;;4999354;28;20179;-85
2023/01/16 03:39:21;;;;;;;6.13;1.80;;;7.20;59.70;;;;;;5000197;28;20172;-89
2023/01/16 03:41:49;;;;;;;6.07;1.30;;;7.20;58.60;;;;;;4991765;28;20168;-89
2023/01/16 03:44:28;;;;;;;5.10;1.50;;;7.20;57.40;;;;;;4983987;28;20164;-88
2023/01/16 03:46:59;;;;;;;5.63;1.40;;;7.30;57.70;;;;;;4983200;28;20167;-89
2023/01/16 03:49:36;;;;;;;4.20;1.30;;;7.40;56.70;;;;;;4981604;28;20176;-88
2023/01/16 03:52:06;;;;;;;8.50;1.77;;;7.40;51.30;;;;;;4979804;28;20175;-88
2023/01/16 03:54:47;;;;;;;6.30;1.77;;;7.50;48.30;;;;;;4990809;28;20168;-89
2023/01/16 03:57:26;;;;;;;6.30;1.60;;;7.40;50.40;;;;;;4997646;28;20183;-88
2023/01/16 03:59:53;;;;;;;6.87;1.50;;;7.60;48.60;;;;;;4993528;28;20171;-88
2023/01/16 04:05:51;;;;;;;6.73;2.07;;;7.50;47.90;;;;;;4993334;28;20242;-88
2023/01/16 04:08:25;;;;;;;5.83;2.17;;;7.70;46.70;;;;;;4988385;28;20214;-88
2023/01/16 04:10:54;;;;;;;5.90;1.53;;;7.70;46.10;;;;;;4979692;28;20176;-88
2023/01/16 04:13:24;;;;;;;7.00;1.77;;;7.80;44.50;;;;;;4977146;28;20624;-91
2023/01/16 04:15:55;;;;;;;5.33;1.20;;;7.90;45.40;;;;;;4978279;28;20695;-89
2023/01/16 04:18:30;;;;;;;4.90;1.53;;;7.70;44.90;;;;;;4977926;28;20274;-89
2023/01/16 04:20:57;;;;;;;7.40;1.70;;;7.80;47.80;;;;;;4962345;28;20183;-89
2023/01/16 04:23:22;;;;;;;3.80;1.40;;;7.70;50.50;;;;;;4981887;28;20215;-87
2023/01/16 04:25:48;;;;;;;5.63;1.50;;;7.70;51.10;;;;;;4987894;28;20211;-89
2023/01/16 04:28:14;;;;;;;5.83;1.63;;;7.70;50.80;;;;;;4984862;28;20167;-87
2023/01/16 04:30:40;;;;;;;6.77;1.30;;;7.70;51.30;;;;;;4999022;28;20180;-88
2023/01/16 04:33:06;;;;;;;6.63;1.43;;;7.80;52.00;;;;;;4982954;28;20160;-85
2023/01/16 04:35:32;;;;;;;5.83;1.70;;;8.00;46.80;;;;;;4987075;28;20206;-88
2023/01/16 04:37:58;;;;;;;4.70;1.73;;;7.90;47.00;;;;;;4991043;28;20214;-87
2023/01/16 04:40:24;;;;;;;7.27;2.07;;;7.90;47.50;;;;;;4992685;28;20172;-88
2023/01/16 04:43:12;;;;;;;4.77;1.37;;;7.80;50.30;;;;;;4980782;28;20205;-89
2023/01/16 04:45:40;;;;;;;6.50;1.30;;;7.70;52.70;;;;;;4977809;28;20172;-86
2023/01/16 04:48:08;;;;;;;4.47;1.40;;;7.80;54.40;;;;;;4980463;28;20180;-88
2023/01/16 04:50:38;;;;;;;3.93;1.03;;;7.90;50.90;;;;;;4982614;28;20172;-87
2023/01/16 04:53:04;;;;;;;5.77;1.57;;;7.90;50.80;;;;;;4982866;28;20215;-87
2023/01/16 04:55:29;;;;;;;6.73;1.60;;;7.90;51.20;;;;;;4985357;28;20182;-89
2023/01/16 04:57:55;;;;;;;6.00;1.90;;;7.90;48.90;;;;;;4982913;28;20171;-88
2023/01/16 05:00:22;;;;;;;5.03;1.30;;;7.90;52.70;;;;;;4978128;28;20179;-90
2023/01/16 05:02:48;;;;;;;7.07;1.50;;;7.80;52.50;;;;;;4977674;28;20258;-87
2023/01/16 05:05:13;;;;;;;6.10;1.23;;;7.90;54.40;;;;;;4977885;28;20200;-88
2023/01/16 05:07:39;;;;;;;5.20;1.37;;;7.90;51.90;;;;;;4975091;28;20640;-88
2023/01/16 05:10:05;;;;;;;4.33;1.17;;;7.70;54.30;;;;;;4976597;28;20168;-88
2023/01/16 05:12:31;;;;;;;7.97;1.47;;;7.70;58.70;;;;;;4980110;28;20251;-86
2023/01/16 05:14:56;;;;;;;4.93;1.57;;;7.60;61.40;;;;;;4997862;28;20180;-86
2023/01/16 05:17:24;;;;;;;8.33;1.53;;;7.60;69.20;;;;;;4981809;28;20555;-88
2023/01/16 05:19:50;;;;;;;6.73;1.27;;;7.60;70.00;;;;;;4975303;28;20179;-88
2023/01/16 05:22:16;;;;;;;6.80;1.60;;;7.60;69.00;;;;;;4974163;28;20200;-87
2023/01/16 05:24:41;;;;;;;6.57;1.63;;;7.60;68.40;;;;;;4974823;28;20195;-88
2023/01/16 05:27:07;;;;;;;3.47;1.00;;;7.40;71.50;;;;;;4974655;28;20298;-87
2023/01/16 05:29:33;;;;;;;6.40;1.37;;;7.30;78.00;;;;;;4975312;28;20707;-88
2023/01/16 05:31:58;;;;;;;4.40;1.10;;;7.20;83.10;;;;;;4978709;28;20515;-88
2023/01/16 05:34:29;;;;;;;4.50;1.63;;;7.30;85.30;;;;;;4980660;28;20172;-86
2023/01/16 05:36:56;;;;;;;5.77;1.37;;;7.20;84.90;;;;;;4998421;28;20172;-88
2023/01/16 05:39:22;;;;;;;3.60;1.30;;;7.20;86.80;;;;;;4997871;28;20175;-85
2023/01/16 05:41:48;;;;;;;3.30;1.13;;;7.20;89.20;;;;;;4990567;28;20175;-87
2023/01/16 05:44:16;;;;;;;3.63;1.10;;;7.20;88.60;;;;;;4983324;28;20183;-87
2023/01/16 05:46:43;;;;;;;2.20;1.17;;;7.10;85.50;;;;;;4981119;28;20172;-87
2023/01/16 05:49:09;;;;;;;2.33;0.80;;;7.10;84.00;;;;;;4974495;28;20186;-88
2023/01/16 05:51:36;;;;;;;4.73;1.30;;;7.00;83.80;;;;;;4977264;28;20266;-88
2023/01/16 05:54:02;;;;;;;1.83;0.93;;;7.10;83.10;;;;;;4978094;28;20251;-88
2023/01/16 05:56:29;;;;;;;1.87;1.00;;;7.00;83.60;;;;;;4985729;28;20179;-87
2023/01/16 05:58:57;;;;;;;2.23;0.90;;;7.00;82.60;;;;;;4987941;28;20187;-86
2023/01/16 06:01:22;;;;;;;5.47;0.90;;;6.90;85.00;;;;;;4974420;28;20175;-87
2023/01/16 06:03:48;;;;;;;1.47;0.60;;;6.90;84.80;;;;;;4995562;28;20263;-85
2023/01/16 06:06:15;;;;;;;1.50;0.80;;;7.00;84.80;;;;;;4997620;28;20179;-87
2023/01/16 06:08:40;;;;;;;2.40;0.90;;;7.00;84.40;;;;;;4990784;28;20187;-88
2023/01/16 06:11:23;;;;;;;2.63;0.83;;;7.00;86.20;;;;;;4978743;28;20168;-86
2023/01/16 06:13:49;;;;;;;3.77;0.77;;;7.00;83.00;;;;;;4979443;28;20245;-88
2023/01/16 06:16:15;;;;;;;3.50;0.60;;;7.00;85.10;;;;;;4977602;28;20222;-85
2023/01/16 06:18:42;;;;;;;2.37;0.67;;;6.80;85.00;;;;;;4980115;28;20191;-89
2023/01/16 06:21:08;;;;;;;3.47;0.63;;;6.70;87.90;;;;;;4997665;28;20184;-86
2023/01/16 06:23:34;;;;;;;2.73;0.77;;;6.70;89.90;;;;;;4994278;28;20261;-87
2023/01/16 06:26:05;;;;;;;2.20;0.97;;;6.70;90.60;;;;;;4987822;28;20207;-88
2023/01/16 06:29:15;;;;;;;1.63;0.60;;;6.70;90.90;;;;;;4979120;28;20180;-87
2023/01/16 06:31:42;;;;;;;2.73;0.70;;;6.60;90.80;;;;;;4980131;28;20178;-88
2023/01/16 06:34:07;;;;;;;2.03;0.60;;;6.70;90.00;;;;;;4978111;28;20597;-89
2023/01/16 06:36:33;;;;;;;6.30;1.23;;;6.70;90.50;;;;;;4962893;29;20223;-88
2023/01/16 06:38:59;;;;;;;2.60;1.03;;;6.80;90.90;;;;;;4966117;28;20192;-88
2023/01/16 06:41:25;;;;;;;0.70;0.60;;;6.70;90.70;;;;;;4978628;29;20187;-88
2023/01/16 06:43:50;;;;;;;1.10;0.57;;;6.70;89.30;;;;;;4980353;28;20224;-84
2023/01/16 06:46:16;;;;;;;1.33;0.53;;;6.70;90.20;;;;;;4980529;28;20169;-83
2023/01/16 06:48:43;;;;;;;2.97;0.80;;;6.80;91.10;;;;;;4982024;28;20179;-86
2023/01/16 06:51:26;;;;;;;1.03;0.70;;;6.50;92.10;;;;;;4981409;28;20169;-90
2023/01/16 06:53:55;;;;;;;1.17;0.70;;;6.60;92.00;;;;;;4981893;28;20256;-85
2023/01/16 06:56:21;;;;;;;0.87;0.50;;;6.60;92.90;;;;;;4979277;28;20176;-90
2023/01/16 06:58:47;;;;;;;1.13;0.60;;;6.60;92.70;;;;;;4976254;29;20219;-88
2023/01/16 07:01:12;;;;;;;0.93;0.60;;;6.60;92.30;;;;;;4960807;29;20222;-89
2023/01/16 07:03:41;;;;;;;1.43;0.63;;;6.40;92.40;;;;;;4966268;29;20216;-89
2023/01/16 07:06:12;;;;;;;1.70;0.73;;;6.40;94.60;;;;;;4959671;29;20212;-88
2023/01/16 07:08:54;;;;;;;0.53;0.50;;;6.20;94.30;;;;;;4959193;29;20188;-89
2023/01/16 07:11:20;;;;;;;1.13;0.80;;;6.30;95.60;;;;;;4961012;29;20200;-90
2023/01/16 07:13:46;;;;;;;0.63;0.50;;;6.30;95.90;;;;;;4959420;29;20184;-90
2023/01/16 07:24:36;;;;;;;0.90;0.50;;;6.30;94.60;;;;;;4959796;29;20196;-88
2023/01/16 07:27:05;;;;;;;0.60;0.60;;;6.50;94.90;;;;;;4942186;29;20648;-88
2023/01/16 07:29:32;;;;;;;3.20;0.70;;;6.30;94.00;;;;;;4957631;29;20199;-88
2023/01/16 07:32:00;;;;;;;1.03;0.60;;;6.30;94.50;;;;;;4958390;29;20255;-88
2023/01/16 07:34:26;;;;;;;0.63;0.50;;;6.30;94.20;;;;;;4959160;29;20187;-88
2023/01/16 07:36:52;;;;;;;1.73;0.70;;;6.30;94.00;;;;;;4963532;28;20263;-87
2023/01/16 07:39:17;;;;;;;0.60;0.60;;;6.30;93.30;;;;;;4962716;29;20179;-88
2023/01/16 07:41:43;;;;;;;0.93;0.43;;;6.20;93.20;;;;;;4959682;29;20696;-90
2023/01/16 07:44:09;;;;;;;1.50;0.70;;;6.30;93.00;;;;;;4958126;28;20229;-86
2023/01/16 07:46:35;;;;;;;0.70;0.63;;;6.30;93.00;;;;;;4958076;29;20235;-87
2023/01/16 07:49:03;;;;;;;1.73;0.50;;;6.30;93.10;;;;;;4955994;29;20279;-88
2023/01/16 07:51:29;;;;;;;1.23;0.90;;;6.20;92.80;;;;;;4956743;29;20234;-89
2023/01/16 07:53:55;;;;;;;1.17;0.60;;;6.20;92.80;;;;;;4957099;29;20184;-88
2023/01/16 07:56:20;;;;;;;0.97;0.70;;;6.20;93.30;;;;;;4957864;29;20552;-89
2023/01/16 07:58:49;;;;;;;0.50;0.50;;;6.30;94.60;;;;;;4957338;29;20176;-87
2023/01/16 08:01:14;;;;;;;1.40;0.80;;;6.30;95.40;;;;;;4956663;29;20172;-87
2023/01/16 08:03:40;;;;;;;2.67;1.00;;;6.30;94.50;;;;;;4956292;29;20274;-87
2023/01/16 08:06:06;;;;;;;2.20;0.83;;;6.40;93.50;;;;;;4957236;29;20232;-87
2023/01/16 08:08:32;;;;;;;0.43;0.43;;;6.40;92.30;;;;;;4956835;29;20176;-91
2023/01/16 08:11:35;;;;;;;0.60;0.50;;;6.50;91.70;;;;;;4956167;29;20172;-91
2023/01/16 08:13:46;;;;;;;1.20;0.80;;;6.40;90.10;;;;;;4969392;28;20164;-89
2023/01/16 08:16:11;;;;;;;1.27;0.80;;;6.60;90.60;;;;;;4970331;28;20238;-91
2023/01/16 08:18:37;;;;;;;1.70;0.97;;;6.60;89.80;;;;;;4959345;29;20204;-91
2023/01/16 08:21:03;;;;;;;1.90;0.70;;;6.50;88.70;;;;;;4963412;29;20621;-92
2023/01/16 08:23:28;;;;;;;0.90;0.63;;;6.50;89.20;;;;;;4959857;29;20203;-91
2023/01/16 08:25:54;;;;;;;2.13;0.93;;;6.50;89.90;;;;;;4967075;29;20214;-89
2023/01/16 08:28:20;;;;;;;3.67;0.80;;;6.50;90.00;;;;;;4979356;28;20180;-89
2023/01/16 08:30:45;;;;;;;2.40;0.60;;;6.50;90.20;;;;;;4976222;28;20657;-91
2023/01/16 08:33:11;;;;;;;3.17;0.80;;;6.60;90.40;;;;;;4963177;29;20184;-90
2023/01/16 08:35:38;;;;;;;1.93;0.80;;;6.70;90.70;;;;;;4945486;29;20263;-90
2023/01/16 08:38:05;;;;;;;1.67;0.70;;;6.70;88.10;;;;;;4971253;28;20211;-90
2023/01/16 08:40:33;;;;;;;3.03;1.00;;;6.70;86.70;;;;;;4973930;28;20184;-90
2023/01/16 08:51:21;;;;;;;5.17;2.60;;;6.90;82.90;;;;;;4960626;29;20164;-90
2023/01/16 08:53:48;;;;;;;4.73;2.30;;;6.90;81.30;;;;;;4959751;29;20176;-91
2023/01/16 08:56:13;;;;;;;2.80;1.10;;;6.90;80.50;;;;;;4966590;28;20184;-88
2023/01/16 08:58:39;;;;;;;1.57;0.93;;;7.00;82.00;;;;;;4979318;28;20268;-90
2023/01/16 09:01:06;;;;;;;1.90;0.97;;;6.90;80.70;;;;;;4977764;28;20200;-89
2023/01/16 09:03:34;;;;;;;2.87;1.10;;;6.90;84.10;;;;;;4973800;28;20219;-88
2023/01/16 09:06:01;;;;;;;2.17;0.97;;;6.80;89.80;;;;;;4978083;28;20164;-91
2023/01/16 09:08:33;;;;;;;1.47;0.83;;;6.70;91.20;;;;;;4968407;29;20176;-91
2023/01/16 09:13:49;;;;;;;3.10;1.07;;;6.60;94.30;;;;;;4970512;29;20175;-91
2023/01/16 09:16:17;;;;;;;2.33;1.03;;;6.60;95.50;;;;;;4978518;28;20169;-91
2023/01/16 09:18:42;;;;;;;1.50;0.90;;;6.60;97.40;;;;;;4978634;28;20226;-90
2023/01/16 09:21:08;;;;;;;2.63;1.10;;;6.70;97.60;;;;;;4978843;28;20188;-89
2023/01/16 09:23:34;;;;;;;7.53;1.37;;;6.70;97.50;;;;;;4984973;28;20215;-90
2023/01/16 09:25:59;;;;;;;3.17;1.07;;;6.80;96.90;;;;;;4995780;28;20183;-90
2023/01/16 09:28:44;;;;;;;2.43;1.03;;;7.00;96.90;;;;;;4983380;28;20191;-91
2023/01/16 09:31:10;;;;;;;3.67;1.43;;;6.80;96.10;;;;;;4977094;28;20542;-90
2023/01/16 09:33:36;;;;;;;4.13;1.83;;;6.90;96.60;;;;;;4975835;28;20179;-90
2023/01/16 09:36:03;;;;;;;4.13;1.80;;;7.00;96.60;;;;;;4977374;28;20187;-90
2023/01/16 09:38:29;;;;;;;5.10;1.70;;;7.00;96.60;;;;;;4986473;28;20196;-89
2023/01/16 09:40:57;;;;;;;2.73;1.47;;;7.20;95.10;;;;;;4986144;28;20252;-89
2023/01/16 09:43:46;;;;;;;4.77;1.67;;;7.10;93.80;;;;;;4990298;28;20219;-89
2023/01/16 09:46:23;;;;;;;2.77;1.37;;;7.20;94.60;;;;;;4992498;28;20171;-88
2023/01/16 09:49:07;;;;;;;1.73;1.20;;;7.30;95.00;;;;;;4987624;28;20190;-91
2023/01/16 09:58:34;;;;;;;3.17;1.30;;;7.40;94.50;;;;;;4987469;28;20164;-88
2023/01/16 10:00:08;;;;;;;2.60;1.07;;;7.70;92.50;;;;;;4977088;28;20182;-91
2023/01/16 10:02:35;;;;;;;1.70;0.80;;;7.60;91.30;;;;;;4975147;28;20266;-90
2023/01/16 10:05:04;;;;;;;2.23;1.20;;;7.50;89.50;;;;;;4976944;28;20175;-89
2023/01/16 10:07:50;;;;;;;2.73;1.20;;;7.40;90.70;;;;;;4976616;28;20178;-88
2023/01/16 10:10:39;;;;;;;1.97;0.90;;;7.40;91.10;;;;;;4979928;28;20180;-91
2023/01/16 10:13:31;;;;;;;1.50;0.80;;;7.40;90.90;;;;;;4982392;28;20179;-91
2023/01/16 10:16:24;;;;;;;1.37;0.83;;;7.30;92.10;;;;;;4987473;28;20206;-89
2023/01/16 10:19:12;;;;;;;2.43;0.93;;;7.20;93.00;;;;;;4981052;28;20277;-91
2023/01/16 10:21:56;;;;;;;2.73;1.13;;;7.10;96.00;;;;;;4999258;28;20198;-91
2023/01/16 10:25:01;;;;;;;2.53;1.40;;;7.10;97.50;;;;;;4992709;28;20278;-91
2023/01/16 10:27:54;;;;;;;1.63;0.80;;;7.00;99.30;;;;;;4958177;28;20195;-90
2023/01/16 10:30:36;;;;;;;1.60;1.10;;;6.90;99.10;;;;;;4981290;28;20180;-91
2023/01/16 10:33:12;;;;;;;3.33;0.87;;;6.90;99.80;;;;;;4979326;28;20172;-90
2023/01/16 10:35:59;;;;;;;3.07;0.70;;;6.80;99.80;;;;;;4978135;28;20187;-92
2023/01/16 10:38:46;;;;;;;1.53;0.83;;;6.70;98.20;;;;;;4976876;28;20192;-91
2023/01/16 10:50:24;;;;;;;1.57;1.17;;;6.80;99.90;;;;;;4979491;28;20178;-90
2023/01/16 10:52:50;;;;;;;2.07;1.20;;;6.90;99.90;;;;;;4978023;28;20171;-89
2023/01/16 10:55:16;;;;;;;2.83;1.37;;;6.90;99.90;;;;;;4979842;28;20247;-91
2023/01/16 10:57:52;;;;;;;2.70;1.53;;;7.00;99.90;;;;;;4996487;28;20194;-88
2023/01/16 11:00:30;;;;;;;3.03;1.40;;;6.90;99.90;;;;;;4999613;28;20190;-89
2023/01/16 11:03:08;;;;;;;2.00;0.93;;;6.90;99.90;;;;;;4996069;28;20686;-89
2023/01/16 11:05:36;;;;;;;2.83;1.33;;;6.80;99.90;;;;;;4992270;28;20195;-90
2023/01/16 11:08:12;;;;;;;4.83;1.07;;;6.90;99.90;;;;;;4991462;28;20183;-91
2023/01/16 11:10:41;;;;;;;2.97;1.07;;;6.90;99.90;;;;;;4988646;28;20159;-89
2023/01/16 11:19:30;;;;;;;1.87;1.00;;;6.90;99.90;;;;;;4980760;28;20195;-88
2023/01/16 11:22:00;;;;;;;2.13;1.10;;;6.90;99.90;;;;;;4977275;28;20179;-88
2023/01/16 11:24:35;;;;;;;5.63;1.33;;;7.00;99.90;;;;;;4983032;28;20194;-88
2023/01/16 11:27:05;;;;;;;3.00;1.30;;;7.10;99.90;;;;;;4980847;28;20193;-88
2023/01/16 11:29:38;;;;;;;4.47;1.40;;;7.20;99.90;;;;;;4976564;28;20793;-87
2023/01/16 11:32:11;;;;;;;2.20;1.20;;;7.30;99.90;;;;;;4977428;28;20210;-87
2023/01/16 11:34:39;;;;;;;6.90;2.73;;;7.40;99.90;;;;;;4977576;28;20209;-89
2023/01/16 11:37:07;;;;;;;4.20;2.30;;;7.50;99.90;;;;;;4978888;28;20183;-87
2023/01/16 11:39:35;;;;;;;6.30;3.20;;;7.50;99.90;;;;;;4995304;28;20203;-88
2023/01/16 11:48:25;;;;;;;5.13;2.90;;;7.50;99.90;;;;;;4979553;28;20697;-87
2023/01/16 11:50:54;;;;;;;8.43;4.10;;;7.60;99.90;;;;;;4982379;28;20172;-89
2023/01/16 11:53:20;;;;;;;3.97;1.83;;;7.40;99.90;;;;;;4982790;28;20172;-88
2023/01/16 11:56:11;;;;;;;5.13;2.83;;;7.30;99.90;;;;;;4980448;28;20287;-86
2023/01/16 11:58:40;;;;;;;4.93;2.10;;;7.40;99.90;;;;;;4979669;28;20635;-89
2023/01/16 12:01:18;;;;;;;5.00;1.90;;;7.20;99.90;;;;;;4992340;28;20190;-88
2023/01/16 12:03:59;;;;;;;3.43;2.00;;;7.10;99.90;;;;;;5009853;28;20249;-85
2023/01/16 12:06:38;;;;;;;3.57;1.50;;;7.10;99.90;;;;;;4992837;28;20252;-83
2023/01/16 12:09:51;;;;;;;3.17;1.87;;;7.10;99.90;;;;;;4997736;28;20246;-86
2023/01/16 12:15:49;;;;;;;4.97;3.07;;;7.20;99.90;;;;;;4936772;29;20173;-87
2023/01/16 12:18:56;;;;;;;5.97;4.27;;;7.10;99.90;;;;;;4993217;28;20298;-89
2023/01/16 12:21:36;;;;;;;4.73;2.80;;;7.00;99.90;;;;;;4990268;28;20207;-88
2023/01/16 12:24:30;;;;;;;5.00;3.30;;;7.00;99.90;;;;;;4982873;28;20377;-87
2023/01/16 12:27:18;;;;;;;3.67;2.40;;;7.10;99.90;;;;;;4977719;28;20172;-85
2023/01/16 12:29:58;;;;;;;4.73;2.10;;;6.90;99.90;;;;;;4978625;28;20270;-86
2023/01/16 12:32:55;;;;;;;5.17;3.90;;;7.00;99.90;;;;;;4992211;28;20246;-88
2023/01/16 12:35:32;;;;;;;3.57;2.17;;;7.00;99.90;;;;;;4978279;28;20759;-87
2023/01/16 12:38:04;;;;;;;3.97;2.90;;;7.10;99.90;;;;;;4977556;28;20404;-88
2023/01/16 12:43:17;;;;;;;3.53;1.53;;;7.00;99.90;;;;;;4979062;28;20282;-88
2023/01/16 12:44:12;;;;;;;7.13;4.00;;;7.20;99.90;;;;;;4980145;28;20230;-88
2023/01/16 12:46:52;;;;;;;4.00;3.07;;;7.30;99.90;;;;;;4980343;28;20650;-88
2023/01/16 12:49:57;;;;;;;8.33;5.07;;;7.20;99.90;;;;;;4977617;28;20182;-87
2023/01/16 12:52:44;;;;;;;4.87;3.50;;;7.20;99.90;;;;;;4976967;28;20218;-89
2023/01/16 12:55:43;;;;;;;3.23;1.73;;;7.30;99.90;;;;;;4981129;28;20192;-88
2023/01/16 12:58:18;;;;;;;3.53;2.10;;;7.30;99.90;;;;;;4976395;28;20182;-88
2023/01/16 13:01:00;;;;;;;2.27;1.50;;;7.40;97.00;;;;;;4977391;28;20309;-89
2023/01/16 13:03:25;;;;;;;2.43;1.10;;;7.50;94.40;;;;;;4974798;28;20824;-88
2023/01/16 13:05:54;;;;;;;2.60;1.20;;;7.60;92.40;;;;;;4977635;28;20180;-86
2023/01/16 13:08:37;;;;;;;2.57;1.20;;;7.40;92.60;;;;;;4982722;28;20319;-86
2023/01/16 13:14:10;;;;;;;6.03;1.27;;;7.50;93.40;;;;;;4987387;28;20166;-88
2023/01/16 13:16:52;;;;;;;2.47;1.07;;;7.50;93.40;;;;;;5014072;28;20180;-85
2023/01/16 13:19:21;;;;;;;1.80;1.17;;;7.40;94.80;;;;;;4998524;28;20163;-86
2023/01/16 13:22:01;;;;;;;1.80;1.30;;;7.40;97.10;;;;;;4996660;28;20204;-89
2023/01/16 13:24:46;;;;;;;3.20;1.53;;;7.50;97.20;;;;;;5007146;28;20206;-88
2023/01/16 13:27:41;;;;;;;2.27;1.30;;;7.50;97.70;;;;;;5007885;28;20239;-88
2023/01/16 13:30:16;;;;;;;1.47;1.00;;;7.50;96.80;;;;;;4967716;28;20187;-88
2023/01/16 13:32:48;;;;;;;2.67;1.40;;;7.50;97.00;;;;;;4991492;28;20183;-88
2023/01/16 13:35:26;;;;;;;3.00;1.60;;;7.60;96.90;;;;;;4993495;28;20186;-88
2023/01/16 13:38:32;;;;;;;2.27;1.40;;;7.50;97.20;;;;;;4993907;28;20183;-87
2023/01/16 13:41:19;;;;;;;2.03;1.40;;;7.40;96.50;;;;;;4993165;28;20179;-88
2023/01/16 13:47:10;;;;;;;2.20;1.40;;;7.60;90.90;;;;;;4998076;28;20187;-87
2023/01/16 13:49:38;;;;;;;3.47;1.60;;;7.60;88.50;;;;;;4982195;28;20555;-87
2023/01/16 13:52:12;;;;;;;3.03;1.40;;;7.70;80.50;;;;;;4981226;28;20195;-89
2023/01/16 13:54:43;;;;;;;3.93;1.40;;;7.80;78.60;;;;;;4980528;28;20538;-88
2023/01/16 13:57:20;;;;;;;2.10;1.37;;;7.90;79.30;;;;;;4992783;28;20172;-85
2023/01/16 13:59:53;;;;;;;5.17;2.10;;;7.80;77.00;;;;;;4999960;28;20164;-87
2023/01/16 14:02:35;;;;;;;4.60;1.70;;;7.70;79.10;;;;;;4995112;28;20227;-87
2023/01/16 14:05:36;;;;;;;3.87;1.80;;;7.70;84.30;;;;;;4982137;28;20180;-88
2023/01/16 14:11:28;;;;;;;3.47;1.27;;;7.70;84.30;;;;;;4980699;28;20667;-87
2023/01/16 14:16:30;;;;;;;1.90;1.40;;;7.60;81.30;;;;;;4982731;28;20230;-89
2023/01/16 14:17:04;;;;;;;4.13;2.20;;;7.50;90.40;;;;;;5001625;28;20179;-86
2023/01/16 14:19:59;;;;;;;2.80;1.60;;;7.40;93.00;;;;;;5001524;28;20156;-85
2023/01/16 14:25:28;;;;;;;2.30;1.17;;;7.20;97.60;;;;;;4982183;28;20484;-88
2023/01/16 14:27:55;;;;;;;2.23;1.20;;;7.20;99.60;;;;;;4981554;28;20178;-88
2023/01/16 14:30:32;;;;;;;4.27;1.30;;;7.20;99.90;;;;;;4980596;28;20175;-87
2023/01/16 14:33:02;;;;;;;1.77;1.13;;;7.30;99.90;;;;;;4979832;28;20168;-86
2023/01/16 14:35:46;;;;;;;2.60;1.60;;;7.40;99.90;;;;;;4981726;28;20183;-87
2023/01/16 14:38:19;;;;;;;2.67;1.93;;;7.50;99.10;;;;;;4979936;28;20187;-89
2023/01/16 14:55:40;;;;;;;2.80;1.50;;;6.90;93.30;;;;;;4958371;28;20188;-92
2023/01/16 14:58:10;;;;;;;3.00;1.50;;;7.10;94.70;;;;;;4980767;28;20555;-88
2023/01/16 15:00:38;;;;;;;2.27;1.50;;;6.90;95.40;;;;;;4962919;28;20598;-90
2023/01/16 15:03:20;;;;;;;2.97;1.70;;;6.90;95.90;;;;;;4981285;28;20267;-88